sensor_id;sensor_type;location;lat;lon;timestamp;P1;durP1;ratioP1;P2;durP2;ratioP2
56541;SDS011;42438;53.174;6.730;2022-08-18T00:00:48;13.68;;;6.68;;
56541;SDS011;42438;53.174;6.730;2022-08-18T00:03:18;14.40;;;5.70;;
56541;SDS011;42438;53.174;6.730;2022-08-18T00:05:49;15.00;;;5.97;;
56541;SDS011;42438;53.174;6.730;2022-08-18T00:08:20;18.65;;;7.25;;
56541;SDS011;42438;53.174;6.730;2022-08-18T00:10:50;15.85;;;6.97;;
56541;SDS011;42438;53.174;6.730;2022-08-18T00:13:21;16.33;;;6.65;;
56541;SDS011;42438;53.174;6.730;2022-08-18T00:15:52;19.35;;;7.00;;
56541;SDS011;42438;53.174;6.730;2022-08-18T00:18:22;14.20;;;6.60;;
56541;SDS011;42438;53.174;6.730;2022-08-18T00:20:53;16.52;;;6.45;;
56541;SDS011;42438;53.174;6.730;2022-08-18T00:23:23;13.07;;;6.55;;
56541;SDS011;42438;53.174;6.730;2022-08-18T00:25:54;12.20;;;5.97;;
56541;SDS011;42438;53.174;6.730;2022-08-18T00:28:26;11.13;;;7.22;;
56541;SDS011;42438;53.174;6.730;2022-08-18T00:30:57;14.35;;;6.72;;
56541;SDS011;42438;53.174;6.730;2022-08-18T00:33:27;15.55;;;7.50;;
56541;SDS011;42438;53.174;6.730;2022-08-18T00:35:58;12.25;;;7.50;;
56541;SDS011;42438;53.174;6.730;2022-08-18T00:38:29;13.57;;;7.55;;
56541;SDS011;42438;53.174;6.730;2022-08-18T00:40:59;19.77;;;9.15;;
56541;SDS011;42438;53.174;6.730;2022-08-18T00:46:08;14.30;;;7.68;;
56541;SDS011;42438;53.174;6.730;2022-08-18T00:48:41;18.45;;;7.97;;
56541;SDS011;42438;53.174;6.730;2022-08-18T00:51:34;16.77;;;8.85;;
56541;SDS011;42438;53.174;6.730;2022-08-18T00:54:08;15.48;;;8.40;;
56541;SDS011;42438;53.174;6.730;2022-08-18T00:56:46;16.77;;;8.38;;
56541;SDS011;42438;53.174;6.730;2022-08-18T00:59:27;22.33;;;9.32;;
56541;SDS011;42438;53.174;6.730;2022-08-18T01:02:19;18.60;;;9.13;;
56541;SDS011;42438;53.174;6.730;2022-08-18T01:07:59;21.45;;;8.45;;
56541;SDS011;42438;53.174;6.730;2022-08-18T01:10:30;18.58;;;9.23;;
56541;SDS011;42438;53.174;6.730;2022-08-18T01:13:02;19.83;;;8.90;;
56541;SDS011;42438;53.174;6.730;2022-08-18T01:15:33;20.10;;;8.90;;
56541;SDS011;42438;53.174;6.730;2022-08-18T01:18:06;16.70;;;8.60;;
56541;SDS011;42438;53.174;6.730;2022-08-18T01:24:23;21.17;;;8.35;;
56541;SDS011;42438;53.174;6.730;2022-08-18T01:27:28;16.15;;;7.70;;
56541;SDS011;42438;53.174;6.730;2022-08-18T01:30:03;13.10;;;7.50;;
56541;SDS011;42438;53.174;6.730;2022-08-18T01:32:39;17.02;;;7.65;;
56541;SDS011;42438;53.174;6.730;2022-08-18T01:35:11;17.05;;;7.75;;
56541;SDS011;42438;53.174;6.730;2022-08-18T01:37:44;16.58;;;8.00;;
56541;SDS011;42438;53.174;6.730;2022-08-18T01:40:18;19.75;;;7.35;;
56541;SDS011;42438;53.174;6.730;2022-08-18T01:42:50;14.82;;;8.23;;
56541;SDS011;42438;53.174;6.730;2022-08-18T01:45:21;20.25;;;8.18;;
56541;SDS011;42438;53.174;6.730;2022-08-18T01:47:51;13.30;;;6.90;;
56541;SDS011;42438;53.174;6.730;2022-08-18T01:50:22;15.45;;;7.32;;
56541;SDS011;42438;53.174;6.730;2022-08-18T01:52:52;17.35;;;7.45;;
56541;SDS011;42438;53.174;6.730;2022-08-18T01:55:23;18.05;;;6.97;;
56541;SDS011;42438;53.174;6.730;2022-08-18T01:57:55;17.40;;;7.70;;
56541;SDS011;42438;53.174;6.730;2022-08-18T02:00:26;18.25;;;7.25;;
56541;SDS011;42438;53.174;6.730;2022-08-18T02:02:58;20.75;;;7.15;;
56541;SDS011;42438;53.174;6.730;2022-08-18T02:05:31;22.83;;;7.83;;
56541;SDS011;42438;53.174;6.730;2022-08-18T02:08:07;16.65;;;7.22;;
56541;SDS011;42438;53.174;6.730;2022-08-18T02:10:38;17.83;;;7.38;;
56541;SDS011;42438;53.174;6.730;2022-08-18T02:13:09;18.08;;;8.38;;
56541;SDS011;42438;53.174;6.730;2022-08-18T02:15:39;18.25;;;7.90;;
56541;SDS011;42438;53.174;6.730;2022-08-18T02:18:15;19.60;;;7.25;;
56541;SDS011;42438;53.174;6.730;2022-08-18T02:20:46;20.02;;;7.82;;
56541;SDS011;42438;53.174;6.730;2022-08-18T02:23:17;20.13;;;7.88;;
56541;SDS011;42438;53.174;6.730;2022-08-18T02:25:48;22.90;;;8.15;;
56541;SDS011;42438;53.174;6.730;2022-08-18T02:28:19;17.48;;;7.20;;
56541;SDS011;42438;53.174;6.730;2022-08-18T02:30:49;22.92;;;7.50;;
56541;SDS011;42438;53.174;6.730;2022-08-18T02:33:20;19.27;;;8.07;;
56541;SDS011;42438;53.174;6.730;2022-08-18T02:35:53;24.65;;;8.65;;
56541;SDS011;42438;53.174;6.730;2022-08-18T02:38:24;18.88;;;8.20;;
56541;SDS011;42438;53.174;6.730;2022-08-18T02:40:55;20.27;;;7.68;;
56541;SDS011;42438;53.174;6.730;2022-08-18T02:43:27;17.52;;;8.30;;
56541;SDS011;42438;53.174;6.730;2022-08-18T02:45:59;20.85;;;8.02;;
56541;SDS011;42438;53.174;6.730;2022-08-18T02:48:30;23.92;;;8.23;;
56541;SDS011;42438;53.174;6.730;2022-08-18T02:51:11;18.88;;;8.23;;
56541;SDS011;42438;53.174;6.730;2022-08-18T02:53:45;21.05;;;7.57;;
56541;SDS011;42438;53.174;6.730;2022-08-18T02:56:21;22.92;;;7.90;;
56541;SDS011;42438;53.174;6.730;2022-08-18T02:58:56;25.58;;;8.35;;
56541;SDS011;42438;53.174;6.730;2022-08-18T03:01:30;20.23;;;8.52;;
56541;SDS011;42438;53.174;6.730;2022-08-18T03:04:05;23.17;;;8.43;;
56541;SDS011;42438;53.174;6.730;2022-08-18T03:06:37;24.17;;;8.55;;
56541;SDS011;42438;53.174;6.730;2022-08-18T03:09:11;22.70;;;8.57;;
56541;SDS011;42438;53.174;6.730;2022-08-18T03:11:44;14.50;;;7.78;;
56541;SDS011;42438;53.174;6.730;2022-08-18T03:14:15;19.58;;;8.25;;
56541;SDS011;42438;53.174;6.730;2022-08-18T03:16:46;20.95;;;8.30;;
56541;SDS011;42438;53.174;6.730;2022-08-18T03:19:17;19.45;;;8.25;;
56541;SDS011;42438;53.174;6.730;2022-08-18T03:21:48;24.55;;;8.63;;
56541;SDS011;42438;53.174;6.730;2022-08-18T03:24:18;22.48;;;7.75;;
56541;SDS011;42438;53.174;6.730;2022-08-18T03:26:50;20.35;;;8.13;;
56541;SDS011;42438;53.174;6.730;2022-08-18T03:29:22;21.15;;;9.32;;
56541;SDS011;42438;53.174;6.730;2022-08-18T03:31:53;19.58;;;8.15;;
56541;SDS011;42438;53.174;6.730;2022-08-18T03:34:24;14.07;;;7.57;;
56541;SDS011;42438;53.174;6.730;2022-08-18T03:36:55;21.55;;;7.43;;
56541;SDS011;42438;53.174;6.730;2022-08-18T03:39:26;18.35;;;7.28;;
56541;SDS011;42438;53.174;6.730;2022-08-18T03:41:57;17.45;;;7.47;;
56541;SDS011;42438;53.174;6.730;2022-08-18T03:44:29;21.17;;;7.78;;
56541;SDS011;42438;53.174;6.730;2022-08-18T03:47:03;17.70;;;6.60;;
56541;SDS011;42438;53.174;6.730;2022-08-18T03:49:38;23.77;;;7.72;;
56541;SDS011;42438;53.174;6.730;2022-08-18T03:52:09;19.02;;;7.47;;
56541;SDS011;42438;53.174;6.730;2022-08-18T03:54:40;18.45;;;6.88;;
56541;SDS011;42438;53.174;6.730;2022-08-18T03:57:12;19.42;;;7.30;;
56541;SDS011;42438;53.174;6.730;2022-08-18T03:59:43;19.65;;;7.55;;
56541;SDS011;42438;53.174;6.730;2022-08-18T04:02:13;17.85;;;7.57;;
56541;SDS011;42438;53.174;6.730;2022-08-18T04:04:44;18.70;;;7.60;;
56541;SDS011;42438;53.174;6.730;2022-08-18T04:07:15;16.48;;;7.43;;
56541;SDS011;42438;53.174;6.730;2022-08-18T04:09:46;15.52;;;7.43;;
56541;SDS011;42438;53.174;6.730;2022-08-18T04:12:17;20.10;;;7.25;;
56541;SDS011;42438;53.174;6.730;2022-08-18T04:14:48;18.13;;;7.55;;
56541;SDS011;42438;53.174;6.730;2022-08-18T04:17:19;17.65;;;6.85;;
56541;SDS011;42438;53.174;6.730;2022-08-18T04:19:54;17.52;;;7.10;;
56541;SDS011;42438;53.174;6.730;2022-08-18T04:22:25;20.55;;;6.78;;
56541;SDS011;42438;53.174;6.730;2022-08-18T04:24:56;19.60;;;6.93;;
56541;SDS011;42438;53.174;6.730;2022-08-18T04:27:27;20.95;;;7.50;;
56541;SDS011;42438;53.174;6.730;2022-08-18T04:29:58;21.30;;;8.20;;
56541;SDS011;42438;53.174;6.730;2022-08-18T04:32:29;18.75;;;8.60;;
56541;SDS011;42438;53.174;6.730;2022-08-18T04:35:00;17.50;;;7.63;;
56541;SDS011;42438;53.174;6.730;2022-08-18T04:37:31;16.00;;;7.65;;
56541;SDS011;42438;53.174;6.730;2022-08-18T04:40:03;19.73;;;7.25;;
56541;SDS011;42438;53.174;6.730;2022-08-18T04:42:35;16.40;;;7.43;;
56541;SDS011;42438;53.174;6.730;2022-08-18T04:45:06;19.77;;;7.72;;
56541;SDS011;42438;53.174;6.730;2022-08-18T04:47:37;15.75;;;7.93;;
56541;SDS011;42438;53.174;6.730;2022-08-18T04:50:10;19.35;;;8.13;;
56541;SDS011;42438;53.174;6.730;2022-08-18T04:52:41;16.67;;;7.72;;
56541;SDS011;42438;53.174;6.730;2022-08-18T04:55:31;24.17;;;7.90;;
56541;SDS011;42438;53.174;6.730;2022-08-18T04:58:02;15.60;;;7.90;;
56541;SDS011;42438;53.174;6.730;2022-08-18T05:00:32;19.55;;;8.68;;
56541;SDS011;42438;53.174;6.730;2022-08-18T05:03:03;19.52;;;8.15;;
56541;SDS011;42438;53.174;6.730;2022-08-18T05:05:34;17.40;;;8.18;;
56541;SDS011;42438;53.174;6.730;2022-08-18T05:08:05;21.50;;;8.88;;
56541;SDS011;42438;53.174;6.730;2022-08-18T05:10:35;16.02;;;8.70;;
56541;SDS011;42438;53.174;6.730;2022-08-18T05:13:06;19.52;;;8.57;;
56541;SDS011;42438;53.174;6.730;2022-08-18T05:15:36;20.05;;;9.52;;
56541;SDS011;42438;53.174;6.730;2022-08-18T05:18:09;18.30;;;8.53;;
56541;SDS011;42438;53.174;6.730;2022-08-18T05:20:40;14.10;;;8.43;;
56541;SDS011;42438;53.174;6.730;2022-08-18T05:23:12;19.70;;;8.55;;
56541;SDS011;42438;53.174;6.730;2022-08-18T05:25:42;18.85;;;8.50;;
56541;SDS011;42438;53.174;6.730;2022-08-18T05:28:14;17.67;;;8.68;;
56541;SDS011;42438;53.174;6.730;2022-08-18T05:30:45;19.05;;;7.75;;
56541;SDS011;42438;53.174;6.730;2022-08-18T05:33:16;16.73;;;6.97;;
56541;SDS011;42438;53.174;6.730;2022-08-18T05:35:48;12.10;;;6.80;;
56541;SDS011;42438;53.174;6.730;2022-08-18T05:38:57;15.38;;;6.95;;
56541;SDS011;42438;53.174;6.730;2022-08-18T05:41:32;15.90;;;7.45;;
56541;SDS011;42438;53.174;6.730;2022-08-18T05:44:06;15.63;;;7.22;;
56541;SDS011;42438;53.174;6.730;2022-08-18T05:46:43;17.27;;;8.43;;
56541;SDS011;42438;53.174;6.730;2022-08-18T05:49:19;16.25;;;7.13;;
56541;SDS011;42438;53.174;6.730;2022-08-18T05:51:52;20.95;;;11.90;;
56541;SDS011;42438;53.174;6.730;2022-08-18T05:54:28;24.33;;;15.73;;
56541;SDS011;42438;53.174;6.730;2022-08-18T05:57:24;22.17;;;13.13;;
56541;SDS011;42438;53.174;6.730;2022-08-18T05:59:59;21.77;;;9.98;;
56541;SDS011;42438;53.174;6.730;2022-08-18T06:02:33;18.50;;;9.40;;
56541;SDS011;42438;53.174;6.730;2022-08-18T06:05:08;20.00;;;9.20;;
56541;SDS011;42438;53.174;6.730;2022-08-18T06:07:44;21.33;;;8.93;;
56541;SDS011;42438;53.174;6.730;2022-08-18T06:10:23;17.02;;;8.98;;
56541;SDS011;42438;53.174;6.730;2022-08-18T06:12:56;17.52;;;8.45;;
56541;SDS011;42438;53.174;6.730;2022-08-18T06:27:00;14.98;;;7.68;;
56541;SDS011;42438;53.174;6.730;2022-08-18T06:36:02;15.73;;;6.57;;
56541;SDS011;42438;53.174;6.730;2022-08-18T06:41:42;16.50;;;7.22;;
56541;SDS011;42438;53.174;6.730;2022-08-18T06:44:37;13.20;;;6.43;;
56541;SDS011;42438;53.174;6.730;2022-08-18T06:53:13;12.40;;;6.78;;
56541;SDS011;42438;53.174;6.730;2022-08-18T06:55:45;13.05;;;6.70;;
56541;SDS011;42438;53.174;6.730;2022-08-18T07:03:23;10.90;;;5.68;;
56541;SDS011;42438;53.174;6.730;2022-08-18T07:06:22;13.35;;;6.18;;
56541;SDS011;42438;53.174;6.730;2022-08-18T07:11:58;6.10;;;4.28;;
56541;SDS011;42438;53.174;6.730;2022-08-18T07:14:41;8.15;;;4.18;;
56541;SDS011;42438;53.174;6.730;2022-08-18T07:17:21;10.40;;;5.07;;
56541;SDS011;42438;53.174;6.730;2022-08-18T07:19:59;10.07;;;5.13;;
56541;SDS011;42438;53.174;6.730;2022-08-18T07:22:56;12.13;;;5.07;;
56541;SDS011;42438;53.174;6.730;2022-08-18T07:25:30;9.63;;;5.10;;
56541;SDS011;42438;53.174;6.730;2022-08-18T07:28:18;14.10;;;4.90;;
56541;SDS011;42438;53.174;6.730;2022-08-18T07:31:07;6.30;;;4.55;;
56541;SDS011;42438;53.174;6.730;2022-08-18T07:33:42;11.32;;;5.15;;
56541;SDS011;42438;53.174;6.730;2022-08-18T07:36:19;9.98;;;4.63;;
56541;SDS011;42438;53.174;6.730;2022-08-18T07:38:55;8.48;;;4.43;;
56541;SDS011;42438;53.174;6.730;2022-08-18T07:41:35;12.13;;;4.35;;
56541;SDS011;42438;53.174;6.730;2022-08-18T07:44:31;10.40;;;4.88;;
56541;SDS011;42438;53.174;6.730;2022-08-18T07:47:14;7.50;;;3.80;;
56541;SDS011;42438;53.174;6.730;2022-08-18T07:52:29;8.15;;;3.33;;
56541;SDS011;42438;53.174;6.730;2022-08-18T07:55:07;8.93;;;3.83;;
56541;SDS011;42438;53.174;6.730;2022-08-18T08:00:41;7.25;;;3.10;;
56541;SDS011;42438;53.174;6.730;2022-08-18T08:06:17;8.23;;;3.28;;
56541;SDS011;42438;53.174;6.730;2022-08-18T08:08:53;8.07;;;3.70;;
56541;SDS011;42438;53.174;6.730;2022-08-18T08:12:03;8.23;;;3.47;;
56541;SDS011;42438;53.174;6.730;2022-08-18T08:14:40;7.18;;;3.05;;
56541;SDS011;42438;53.174;6.730;2022-08-18T08:23:28;5.60;;;2.63;;
56541;SDS011;42438;53.174;6.730;2022-08-18T08:37:18;8.10;;;3.05;;
56541;SDS011;42438;53.174;6.730;2022-08-18T08:39:55;7.85;;;3.22;;
56541;SDS011;42438;53.174;6.730;2022-08-18T08:45:35;8.55;;;3.40;;
56541;SDS011;42438;53.174;6.730;2022-08-18T08:48:11;7.22;;;2.92;;
56541;SDS011;42438;53.174;6.730;2022-08-18T08:53:30;6.95;;;2.90;;
56541;SDS011;42438;53.174;6.730;2022-08-18T08:56:10;6.47;;;3.33;;
56541;SDS011;42438;53.174;6.730;2022-08-18T08:58:47;6.53;;;2.80;;
56541;SDS011;42438;53.174;6.730;2022-08-18T09:01:45;5.82;;;2.97;;
56541;SDS011;42438;53.174;6.730;2022-08-18T09:04:36;6.93;;;3.05;;
56541;SDS011;42438;53.174;6.730;2022-08-18T09:13:35;6.38;;;2.80;;
56541;SDS011;42438;53.174;6.730;2022-08-18T09:19:35;8.93;;;2.35;;
56541;SDS011;42438;53.174;6.730;2022-08-18T09:22:59;6.10;;;2.55;;
56541;SDS011;42438;53.174;6.730;2022-08-18T09:25:10;5.85;;;2.15;;
56541;SDS011;42438;53.174;6.730;2022-08-18T09:38:48;5.63;;;2.20;;
56541;SDS011;42438;53.174;6.730;2022-08-18T09:41:46;5.50;;;2.75;;
56541;SDS011;42438;53.174;6.730;2022-08-18T09:49:53;5.65;;;2.65;;
56541;SDS011;42438;53.174;6.730;2022-08-18T09:57:33;6.00;;;2.50;;
56541;SDS011;42438;53.174;6.730;2022-08-18T10:10:45;6.68;;;2.60;;
56541;SDS011;42438;53.174;6.730;2022-08-18T10:13:29;6.10;;;2.30;;
56541;SDS011;42438;53.174;6.730;2022-08-18T10:16:40;5.45;;;2.10;;
56541;SDS011;42438;53.174;6.730;2022-08-18T10:19:35;7.07;;;2.35;;
56541;SDS011;42438;53.174;6.730;2022-08-18T10:22:33;5.28;;;2.15;;
56541;SDS011;42438;53.174;6.730;2022-08-18T10:25:10;4.35;;;2.20;;
56541;SDS011;42438;53.174;6.730;2022-08-18T10:27:48;5.03;;;2.42;;
56541;SDS011;42438;53.174;6.730;2022-08-18T10:33:05;9.60;;;2.30;;
56541;SDS011;42438;53.174;6.730;2022-08-18T10:38:13;5.82;;;2.28;;
56541;SDS011;42438;53.174;6.730;2022-08-18T10:40:52;5.45;;;2.30;;
56541;SDS011;42438;53.174;6.730;2022-08-18T10:46:01;4.93;;;2.65;;
56541;SDS011;42438;53.174;6.730;2022-08-18T10:48:32;4.93;;;2.65;;
56541;SDS011;42438;53.174;6.730;2022-08-18T10:51:12;8.10;;;2.95;;
56541;SDS011;42438;53.174;6.730;2022-08-18T10:53:50;9.95;;;2.90;;
56541;SDS011;42438;53.174;6.730;2022-08-18T10:56:34;5.88;;;2.30;;
56541;SDS011;42438;53.174;6.730;2022-08-18T10:59:29;6.25;;;2.65;;
56541;SDS011;42438;53.174;6.730;2022-08-18T11:02:24;7.40;;;2.58;;
56541;SDS011;42438;53.174;6.730;2022-08-18T11:05:09;7.57;;;2.58;;
56541;SDS011;42438;53.174;6.730;2022-08-18T11:07:47;4.35;;;2.75;;
56541;SDS011;42438;53.174;6.730;2022-08-18T11:10:20;8.23;;;2.72;;
56541;SDS011;42438;53.174;6.730;2022-08-18T11:18:35;6.57;;;2.53;;
56541;SDS011;42438;53.174;6.730;2022-08-18T11:26:37;8.05;;;2.70;;
56541;SDS011;42438;53.174;6.730;2022-08-18T11:42:52;5.35;;;2.10;;
56541;SDS011;42438;53.174;6.730;2022-08-18T11:45:24;3.97;;;2.08;;
56541;SDS011;42438;53.174;6.730;2022-08-18T11:58:59;4.72;;;2.08;;
56541;SDS011;42438;53.174;6.730;2022-08-18T12:04:30;3.67;;;2.33;;
56541;SDS011;42438;53.174;6.730;2022-08-18T12:07:09;4.53;;;2.38;;
56541;SDS011;42438;53.174;6.730;2022-08-18T12:09:43;6.13;;;2.60;;
56541;SDS011;42438;53.174;6.730;2022-08-18T12:12:44;5.25;;;2.28;;
56541;SDS011;42438;53.174;6.730;2022-08-18T12:15:24;5.97;;;2.50;;
56541;SDS011;42438;53.174;6.730;2022-08-18T12:17:57;3.40;;;2.22;;
56541;SDS011;42438;53.174;6.730;2022-08-18T12:20:28;4.28;;;2.33;;
56541;SDS011;42438;53.174;6.730;2022-08-18T12:22:59;4.22;;;2.03;;
56541;SDS011;42438;53.174;6.730;2022-08-18T12:25:29;3.33;;;2.10;;
56541;SDS011;42438;53.174;6.730;2022-08-18T12:28:00;6.28;;;2.17;;
56541;SDS011;42438;53.174;6.730;2022-08-18T12:30:30;5.20;;;2.25;;
56541;SDS011;42438;53.174;6.730;2022-08-18T12:33:01;3.72;;;2.42;;
56541;SDS011;42438;53.174;6.730;2022-08-18T12:35:32;3.38;;;2.40;;
56541;SDS011;42438;53.174;6.730;2022-08-18T12:38:03;5.47;;;2.58;;
56541;SDS011;42438;53.174;6.730;2022-08-18T12:40:34;7.50;;;2.80;;
56541;SDS011;42438;53.174;6.730;2022-08-18T12:43:04;3.45;;;1.88;;
56541;SDS011;42438;53.174;6.730;2022-08-18T12:45:35;6.00;;;2.42;;
56541;SDS011;42438;53.174;6.730;2022-08-18T12:48:06;4.20;;;2.15;;
56541;SDS011;42438;53.174;6.730;2022-08-18T12:50:37;4.63;;;2.13;;
56541;SDS011;42438;53.174;6.730;2022-08-18T12:53:10;3.97;;;2.55;;
56541;SDS011;42438;53.174;6.730;2022-08-18T12:55:41;5.07;;;2.22;;
56541;SDS011;42438;53.174;6.730;2022-08-18T12:58:13;4.27;;;1.90;;
56541;SDS011;42438;53.174;6.730;2022-08-18T13:00:43;4.00;;;1.95;;
56541;SDS011;42438;53.174;6.730;2022-08-18T13:03:15;5.63;;;2.30;;
56541;SDS011;42438;53.174;6.730;2022-08-18T13:08:19;4.60;;;2.63;;
56541;SDS011;42438;53.174;6.730;2022-08-18T13:10:51;5.00;;;2.40;;
56541;SDS011;42438;53.174;6.730;2022-08-18T13:13:21;6.32;;;2.30;;
56541;SDS011;42438;53.174;6.730;2022-08-18T13:15:52;4.18;;;2.22;;
56541;SDS011;42438;53.174;6.730;2022-08-18T13:18:24;5.47;;;2.40;;
56541;SDS011;42438;53.174;6.730;2022-08-18T13:20:56;4.65;;;2.25;;
56541;SDS011;42438;53.174;6.730;2022-08-18T13:23:27;4.05;;;2.15;;
56541;SDS011;42438;53.174;6.730;2022-08-18T13:25:59;4.87;;;2.63;;
56541;SDS011;42438;53.174;6.730;2022-08-18T13:28:32;4.90;;;2.47;;
56541;SDS011;42438;53.174;6.730;2022-08-18T13:31:03;3.03;;;1.98;;
56541;SDS011;42438;53.174;6.730;2022-08-18T13:33:34;3.83;;;2.30;;
56541;SDS011;42438;53.174;6.730;2022-08-18T13:36:04;5.13;;;2.70;;
56541;SDS011;42438;53.174;6.730;2022-08-18T13:38:35;4.40;;;2.30;;
56541;SDS011;42438;53.174;6.730;2022-08-18T13:41:06;5.28;;;2.33;;
56541;SDS011;42438;53.174;6.730;2022-08-18T13:43:39;5.18;;;2.60;;
56541;SDS011;42438;53.174;6.730;2022-08-18T13:46:13;6.22;;;2.30;;
56541;SDS011;42438;53.174;6.730;2022-08-18T13:48:47;5.03;;;2.40;;
56541;SDS011;42438;53.174;6.730;2022-08-18T13:51:20;4.15;;;2.45;;
56541;SDS011;42438;53.174;6.730;2022-08-18T13:53:52;5.00;;;2.20;;
56541;SDS011;42438;53.174;6.730;2022-08-18T13:56:23;4.75;;;2.72;;
56541;SDS011;42438;53.174;6.730;2022-08-18T13:58:54;5.72;;;2.63;;
56541;SDS011;42438;53.174;6.730;2022-08-18T14:01:24;3.97;;;2.70;;
56541;SDS011;42438;53.174;6.730;2022-08-18T14:03:55;5.68;;;2.47;;
56541;SDS011;42438;53.174;6.730;2022-08-18T14:06:25;4.82;;;2.72;;
56541;SDS011;42438;53.174;6.730;2022-08-18T14:08:56;4.47;;;2.92;;
56541;SDS011;42438;53.174;6.730;2022-08-18T14:11:28;4.20;;;2.67;;
56541;SDS011;42438;53.174;6.730;2022-08-18T14:14:00;4.88;;;2.50;;
56541;SDS011;42438;53.174;6.730;2022-08-18T14:16:31;4.60;;;2.33;;
56541;SDS011;42438;53.174;6.730;2022-08-18T14:19:03;3.90;;;2.35;;
56541;SDS011;42438;53.174;6.730;2022-08-18T14:21:52;4.47;;;2.45;;
56541;SDS011;42438;53.174;6.730;2022-08-18T14:24:42;5.20;;;2.13;;
56541;SDS011;42438;53.174;6.730;2022-08-18T14:27:33;4.13;;;2.40;;
56541;SDS011;42438;53.174;6.730;2022-08-18T14:30:08;4.85;;;2.30;;
56541;SDS011;42438;53.174;6.730;2022-08-18T14:32:41;5.45;;;2.15;;
56541;SDS011;42438;53.174;6.730;2022-08-18T14:35:12;4.10;;;2.15;;
56541;SDS011;42438;53.174;6.730;2022-08-18T14:37:44;3.78;;;2.47;;
56541;SDS011;42438;53.174;6.730;2022-08-18T14:40:15;6.07;;;2.50;;
56541;SDS011;42438;53.174;6.730;2022-08-18T14:42:49;3.10;;;2.30;;
56541;SDS011;42438;53.174;6.730;2022-08-18T14:45:19;3.67;;;2.28;;
56541;SDS011;42438;53.174;6.730;2022-08-18T14:47:50;3.63;;;2.30;;
56541;SDS011;42438;53.174;6.730;2022-08-18T14:50:23;4.45;;;1.90;;
56541;SDS011;42438;53.174;6.730;2022-08-18T14:52:53;5.05;;;2.42;;
56541;SDS011;42438;53.174;6.730;2022-08-18T14:55:24;5.57;;;2.58;;
56541;SDS011;42438;53.174;6.730;2022-08-18T14:57:55;5.07;;;2.30;;
56541;SDS011;42438;53.174;6.730;2022-08-18T15:00:26;3.10;;;2.10;;
56541;SDS011;42438;53.174;6.730;2022-08-18T15:02:57;4.20;;;2.33;;
56541;SDS011;42438;53.174;6.730;2022-08-18T15:05:27;3.58;;;2.60;;
56541;SDS011;42438;53.174;6.730;2022-08-18T15:08:02;3.88;;;2.38;;
56541;SDS011;42438;53.174;6.730;2022-08-18T15:10:33;4.47;;;2.58;;
56541;SDS011;42438;53.174;6.730;2022-08-18T15:13:04;3.40;;;2.47;;
56541;SDS011;42438;53.174;6.730;2022-08-18T15:15:34;3.47;;;2.70;;
56541;SDS011;42438;53.174;6.730;2022-08-18T15:18:05;3.22;;;2.30;;
56541;SDS011;42438;53.174;6.730;2022-08-18T15:20:37;3.83;;;2.35;;
56541;SDS011;42438;53.174;6.730;2022-08-18T15:23:28;3.40;;;2.15;;
56541;SDS011;42438;53.174;6.730;2022-08-18T15:26:19;3.60;;;2.35;;
56541;SDS011;42438;53.174;6.730;2022-08-18T15:28:53;3.83;;;2.13;;
56541;SDS011;42438;53.174;6.730;2022-08-18T15:31:23;3.45;;;2.28;;
56541;SDS011;42438;53.174;6.730;2022-08-18T15:33:56;4.38;;;2.45;;
56541;SDS011;42438;53.174;6.730;2022-08-18T15:36:27;7.70;;;2.20;;
56541;SDS011;42438;53.174;6.730;2022-08-18T15:38:58;4.43;;;2.33;;
56541;SDS011;42438;53.174;6.730;2022-08-18T15:44:04;3.25;;;2.38;;
56541;SDS011;42438;53.174;6.730;2022-08-18T15:46:36;4.03;;;2.58;;
56541;SDS011;42438;53.174;6.730;2022-08-18T15:49:08;4.65;;;2.20;;
56541;SDS011;42438;53.174;6.730;2022-08-18T15:51:39;3.92;;;2.40;;
56541;SDS011;42438;53.174;6.730;2022-08-18T15:54:11;5.38;;;2.33;;
56541;SDS011;42438;53.174;6.730;2022-08-18T15:56:42;4.63;;;2.20;;
56541;SDS011;42438;53.174;6.730;2022-08-18T15:59:12;3.35;;;2.25;;
56541;SDS011;42438;53.174;6.730;2022-08-18T16:01:43;3.53;;;2.75;;
56541;SDS011;42438;53.174;6.730;2022-08-18T16:04:13;3.67;;;2.42;;
56541;SDS011;42438;53.174;6.730;2022-08-18T16:06:44;4.60;;;2.35;;
56541;SDS011;42438;53.174;6.730;2022-08-18T16:09:16;4.00;;;2.42;;
56541;SDS011;42438;53.174;6.730;2022-08-18T16:11:47;4.05;;;2.55;;
56541;SDS011;42438;53.174;6.730;2022-08-18T16:14:18;3.72;;;2.40;;
56541;SDS011;42438;53.174;6.730;2022-08-18T16:16:48;5.07;;;2.25;;
56541;SDS011;42438;53.174;6.730;2022-08-18T16:19:19;4.65;;;2.45;;
56541;SDS011;42438;53.174;6.730;2022-08-18T16:21:50;4.85;;;2.50;;
56541;SDS011;42438;53.174;6.730;2022-08-18T16:24:21;3.40;;;2.45;;
56541;SDS011;42438;53.174;6.730;2022-08-18T16:26:52;4.50;;;2.20;;
56541;SDS011;42438;53.174;6.730;2022-08-18T16:29:23;4.82;;;1.98;;
56541;SDS011;42438;53.174;6.730;2022-08-18T16:31:53;4.80;;;2.20;;
56541;SDS011;42438;53.174;6.730;2022-08-18T16:34:24;4.35;;;2.08;;
56541;SDS011;42438;53.174;6.730;2022-08-18T16:36:56;6.05;;;2.40;;
56541;SDS011;42438;53.174;6.730;2022-08-18T16:39:27;3.50;;;1.95;;
56541;SDS011;42438;53.174;6.730;2022-08-18T16:42:02;3.40;;;2.22;;
56541;SDS011;42438;53.174;6.730;2022-08-18T16:44:33;3.95;;;2.08;;
56541;SDS011;42438;53.174;6.730;2022-08-18T16:47:04;4.47;;;2.08;;
56541;SDS011;42438;53.174;6.730;2022-08-18T16:49:35;2.80;;;2.00;;
56541;SDS011;42438;53.174;6.730;2022-08-18T16:52:06;4.57;;;2.40;;
56541;SDS011;42438;53.174;6.730;2022-08-18T16:54:36;4.68;;;2.13;;
56541;SDS011;42438;53.174;6.730;2022-08-18T16:57:07;4.43;;;2.30;;
56541;SDS011;42438;53.174;6.730;2022-08-18T16:59:38;3.05;;;2.15;;
56541;SDS011;42438;53.174;6.730;2022-08-18T17:02:27;3.13;;;1.98;;
56541;SDS011;42438;53.174;6.730;2022-08-18T17:05:16;5.35;;;2.08;;
56541;SDS011;42438;53.174;6.730;2022-08-18T17:07:47;4.07;;;2.30;;
56541;SDS011;42438;53.174;6.730;2022-08-18T17:10:19;4.60;;;2.25;;
56541;SDS011;42438;53.174;6.730;2022-08-18T17:12:49;3.95;;;2.38;;
56541;SDS011;42438;53.174;6.730;2022-08-18T17:15:20;5.50;;;2.50;;
56541;SDS011;42438;53.174;6.730;2022-08-18T17:17:51;4.63;;;2.40;;
56541;SDS011;42438;53.174;6.730;2022-08-18T17:20:21;6.80;;;3.08;;
56541;SDS011;42438;53.174;6.730;2022-08-18T17:22:52;4.32;;;2.63;;
56541;SDS011;42438;53.174;6.730;2022-08-18T17:25:23;5.97;;;2.60;;
56541;SDS011;42438;53.174;6.730;2022-08-18T17:27:55;4.43;;;2.30;;
56541;SDS011;42438;53.174;6.730;2022-08-18T17:30:27;4.50;;;2.50;;
56541;SDS011;42438;53.174;6.730;2022-08-18T17:33:04;5.10;;;2.60;;
56541;SDS011;42438;53.174;6.730;2022-08-18T17:35:42;6.28;;;2.30;;
56541;SDS011;42438;53.174;6.730;2022-08-18T17:40:48;3.72;;;2.38;;
56541;SDS011;42438;53.174;6.730;2022-08-18T17:43:24;4.30;;;2.50;;
56541;SDS011;42438;53.174;6.730;2022-08-18T17:46:05;5.35;;;2.80;;
56541;SDS011;42438;53.174;6.730;2022-08-18T17:48:49;4.88;;;2.40;;
56541;SDS011;42438;53.174;6.730;2022-08-18T17:51:42;4.00;;;2.40;;
56541;SDS011;42438;53.174;6.730;2022-08-18T17:57:09;4.07;;;2.22;;
56541;SDS011;42438;53.174;6.730;2022-08-18T17:59:45;3.80;;;2.75;;
56541;SDS011;42438;53.174;6.730;2022-08-18T18:02:30;4.53;;;2.58;;
56541;SDS011;42438;53.174;6.730;2022-08-18T18:05:04;3.47;;;2.25;;
56541;SDS011;42438;53.174;6.730;2022-08-18T18:15:46;4.47;;;2.30;;
56541;SDS011;42438;53.174;6.730;2022-08-18T18:18:30;3.78;;;2.10;;
56541;SDS011;42438;53.174;6.730;2022-08-18T18:24:28;6.20;;;2.47;;
56541;SDS011;42438;53.174;6.730;2022-08-18T18:26:43;4.93;;;1.92;;
56541;SDS011;42438;53.174;6.730;2022-08-18T18:32:18;4.80;;;2.17;;
56541;SDS011;42438;53.174;6.730;2022-08-18T18:40:30;4.07;;;2.05;;